createdAt,value
2022-12-27T00:00:00.153Z,75
2022-12-27T00:05:00.133Z,74.8
2022-12-27T00:10:00.178Z,74.9
2022-12-27T00:15:00.141Z,75.1
2022-12-27T00:20:02.928Z,75.3
2022-12-27T00:25:00.127Z,75.4
2022-12-27T00:30:00.140Z,75.6
2022-12-27T00:35:00.172Z,75.7
2022-12-27T00:40:00.145Z,76
2022-12-27T00:45:00.137Z,76.3
2022-12-27T00:50:00.123Z,76.4
2022-12-27T00:55:00.143Z,76.3
2022-12-27T01:00:03.462Z,76.3
2022-12-27T01:05:00.126Z,76.6
2022-12-27T01:10:00.137Z,77
2022-12-27T01:15:00.233Z,77.3
2022-12-27T01:20:00.134Z,77.5
2022-12-27T01:25:00.158Z,77.6
2022-12-27T01:30:00.112Z,77.3
2022-12-27T01:35:00.186Z,77.2
2022-12-27T01:40:00.147Z,77.2
2022-12-27T01:45:00.131Z,77.1
2022-12-27T01:50:00.133Z,76.6
2022-12-27T01:55:00.139Z,77.1
2022-12-27T02:00:00.160Z,77
2022-12-27T02:05:00.115Z,77
2022-12-27T02:10:00.114Z,77.1
2022-12-27T02:15:00.150Z,77.1
2022-12-27T02:20:00.135Z,77
2022-12-27T02:25:00.127Z,77
2022-12-27T02:30:00.117Z,76.8
2022-12-27T02:35:00.132Z,76.7
2022-12-27T02:40:00.151Z,76.6
2022-12-27T02:45:00.129Z,76.6
2022-12-27T02:50:00.125Z,76.4
2022-12-27T02:55:00.150Z,76.2
2022-12-27T03:00:00.226Z,76.1
2022-12-27T03:05:00.152Z,76
2022-12-27T03:10:00.109Z,76
2022-12-27T03:15:00.260Z,75.9
2022-12-27T03:20:00.202Z,76
2022-12-27T03:25:00.107Z,76.2
2022-12-27T03:30:00.116Z,76.3
2022-12-27T03:35:00.151Z,76.3
2022-12-27T03:40:00.119Z,76.6
2022-12-27T03:45:00.117Z,76.6
2022-12-27T03:50:00.128Z,76.8
2022-12-27T03:55:00.178Z,77.1
2022-12-27T04:00:00.166Z,76.9
2022-12-27T04:05:00.105Z,76.9
2022-12-27T04:10:00.127Z,76.6
2022-12-27T04:15:00.136Z,76.2
2022-12-27T04:20:00.153Z,76
2022-12-27T04:25:00.129Z,75.7
2022-12-27T04:30:00.135Z,75.4
2022-12-27T04:35:00.136Z,75.4
2022-12-27T04:40:00.115Z,75.6
2022-12-27T04:45:00.132Z,75.6
2022-12-27T04:50:00.136Z,75.7
2022-12-27T04:55:00.126Z,75.9
2022-12-27T05:00:00.188Z,76.1
2022-12-27T05:05:00.116Z,75.5
2022-12-27T05:10:00.124Z,76.4
2022-12-27T05:15:00.145Z,76.7
2022-12-27T05:20:00.152Z,76.9
2022-12-27T05:25:00.146Z,77.1
2022-12-27T05:30:00.144Z,76.8
2022-12-27T05:35:00.135Z,77.6
2022-12-27T05:40:00.096Z,77.8
2022-12-27T05:45:00.105Z,78
2022-12-27T05:50:00.128Z,78.2
2022-12-27T05:55:00.143Z,78.2
2022-12-27T06:00:00.173Z,78.2
2022-12-27T06:05:00.102Z,78.3
2022-12-27T06:10:00.143Z,78.2
2022-12-27T06:15:00.147Z,78.2
2022-12-27T06:20:00.136Z,78.3
2022-12-27T06:25:00.147Z,78.3
2022-12-27T06:30:00.129Z,78.3
2022-12-27T06:35:00.164Z,78.1
2022-12-27T06:40:00.132Z,78.2
2022-12-27T06:45:00.129Z,78.2
2022-12-27T06:50:00.127Z,78.2
2022-12-27T06:55:00.157Z,78.2
2022-12-27T07:00:00.148Z,78.2
2022-12-27T07:05:00.144Z,78.3
2022-12-27T07:10:00.150Z,78.3
2022-12-27T07:15:00.153Z,78.5
2022-12-27T07:20:00.105Z,78.5
2022-12-27T07:25:00.124Z,78.5
2022-12-27T07:30:00.170Z,78.6
2022-12-27T07:35:00.152Z,78.5
2022-12-27T07:40:00.137Z,78.5
2022-12-27T07:45:00.122Z,78.3
2022-12-27T07:50:00.139Z,78
2022-12-27T07:55:00.153Z,77.7
2022-12-27T08:00:00.152Z,77.1
2022-12-27T08:05:00.143Z,76.7
2022-12-27T08:10:00.120Z,76.2
2022-12-27T08:15:00.123Z,76
2022-12-27T08:20:00.103Z,75.9
2022-12-27T08:25:00.139Z,75.9
2022-12-27T08:30:00.170Z,75.7
2022-12-27T08:35:18.202Z,75.7
2022-12-27T08:40:02.769Z,75.7
2022-12-27T08:45:00.108Z,75.8
2022-12-27T08:50:00.155Z,75.9
2022-12-27T08:55:00.154Z,75.7
2022-12-27T09:00:00.223Z,74.6
2022-12-27T09:05:00.127Z,73.2
2022-12-27T09:10:00.123Z,72
2022-12-27T09:15:00.164Z,71.3
2022-12-27T09:20:00.158Z,70.9
2022-12-27T09:25:00.183Z,70.7
2022-12-27T09:30:00.147Z,70
2022-12-27T09:35:00.138Z,69.5
2022-12-27T09:40:00.143Z,69.2
2022-12-27T09:45:00.108Z,69
2022-12-27T09:50:00.138Z,68.9
2022-12-27T09:55:04.600Z,69
2022-12-27T10:00:00.148Z,68.5
2022-12-27T10:10:00.208Z,68.2
2022-12-27T10:15:00.243Z,68.2
2022-12-27T10:20:00.094Z,67.9
2022-12-27T10:25:00.180Z,67.5
2022-12-27T10:30:00.239Z,67.6
2022-12-27T10:35:00.197Z,67.2
2022-12-27T10:40:00.128Z,67.7
2022-12-27T10:45:00.123Z,68
2022-12-27T10:50:00.138Z,67.7
2022-12-27T10:55:00.140Z,67.9
2022-12-27T11:00:00.321Z,67.7
2022-12-27T11:05:00.210Z,67.8
2022-12-27T11:10:00.153Z,68.2
2022-12-27T11:15:00.280Z,68.9
2022-12-27T11:20:00.128Z,69.5
2022-12-27T11:25:00.233Z,69.8
2022-12-27T11:30:00.172Z,70
2022-12-27T11:35:00.152Z,70.3
2022-12-27T11:40:00.148Z,70.8
2022-12-27T11:45:00.139Z,70.8
2022-12-27T11:50:00.134Z,70.9
2022-12-27T11:55:00.125Z,70.7
2022-12-27T12:00:00.177Z,70.5
2022-12-27T12:05:00.192Z,70.3
2022-12-27T12:10:00.275Z,70.3
2022-12-27T12:15:00.169Z,70
2022-12-27T12:20:00.157Z,69.9
2022-12-27T12:25:00.202Z,69.7
2022-12-27T12:30:00.155Z,69.7
2022-12-27T12:35:00.164Z,69.9
2022-12-27T12:40:00.133Z,69.7
2022-12-27T12:45:00.145Z,69.9
2022-12-27T12:50:00.137Z,70
2022-12-27T12:55:00.185Z,70.1
2022-12-27T13:00:00.159Z,70.3
2022-12-27T13:05:00.145Z,70.4
2022-12-27T13:10:00.177Z,70.3
2022-12-27T13:15:00.123Z,69.8
2022-12-27T13:20:00.303Z,69.7
2022-12-27T13:25:00.158Z,69.6
2022-12-27T13:30:03.147Z,68.9
2022-12-27T13:35:00.140Z,67.9
2022-12-27T13:40:00.164Z,67.5
2022-12-27T13:45:00.181Z,67.5
2022-12-27T13:50:00.216Z,67.4
2022-12-27T13:55:00.171Z,67.7
2022-12-27T14:00:00.177Z,68.1
2022-12-27T14:05:00.155Z,68.3
2022-12-27T14:10:00.125Z,68.5
2022-12-27T14:15:00.191Z,68.4
2022-12-27T14:20:00.210Z,68.5
2022-12-27T14:25:00.179Z,68.5
2022-12-27T14:30:00.157Z,68.5
2022-12-27T14:35:00.299Z,68.6
2022-12-27T14:40:00.185Z,68.7
2022-12-27T14:45:00.121Z,68.9
2022-12-27T14:50:00.202Z,68.9
2022-12-27T14:55:00.140Z,69
2022-12-27T15:00:00.155Z,69.2
2022-12-27T15:05:00.136Z,68.7
2022-12-27T15:10:00.160Z,69.4
2022-12-27T15:15:00.150Z,69.6
2022-12-27T15:20:00.134Z,69.8
2022-12-27T15:25:00.129Z,70.1
2022-12-27T15:30:00.117Z,70.4
2022-12-27T15:35:00.184Z,70.8
2022-12-27T15:40:00.130Z,71.1
2022-12-27T15:45:00.124Z,71.3
2022-12-27T15:50:00.133Z,71.4
2022-12-27T15:55:00.155Z,71.5
2022-12-27T16:00:00.318Z,71.6
2022-12-27T16:05:00.118Z,71.7
2022-12-27T16:10:00.190Z,71.8
2022-12-27T16:15:00.134Z,72.1
2022-12-27T16:20:00.149Z,72.3
2022-12-27T16:25:00.136Z,72.4
2022-12-27T16:30:00.136Z,72.5
2022-12-27T16:35:00.151Z,72.6
2022-12-27T16:40:00.102Z,72.7
2022-12-27T16:45:00.140Z,72.9
2022-12-27T16:50:00.213Z,73
2022-12-27T16:55:00.153Z,73
2022-12-27T17:00:00.200Z,73
2022-12-27T17:05:00.123Z,73.1
2022-12-27T17:10:00.153Z,73.2
2022-12-27T17:15:00.209Z,73.3
2022-12-27T17:20:00.167Z,73.4
2022-12-27T17:25:00.149Z,73.6
2022-12-27T17:30:00.129Z,73.6
2022-12-27T17:35:00.177Z,73.7
2022-12-27T17:40:00.197Z,73.7
2022-12-27T17:45:00.118Z,73.6
2022-12-27T17:50:00.118Z,73.7
2022-12-27T17:55:00.153Z,73.6
2022-12-27T18:00:00.177Z,73.6
2022-12-27T18:05:00.140Z,73.5
2022-12-27T18:10:00.148Z,73.3
2022-12-27T18:15:00.144Z,73.3
2022-12-27T18:20:00.124Z,72.6
2022-12-27T18:25:00.149Z,72.9
2022-12-27T18:30:00.150Z,72.7
2022-12-27T18:35:00.149Z,72.5
2022-12-27T18:40:00.128Z,72.4
2022-12-27T18:45:00.131Z,72.4
2022-12-27T18:50:00.115Z,72.3
2022-12-27T18:55:00.147Z,72.3
2022-12-27T19:00:00.128Z,72.2
2022-12-27T19:05:00.136Z,72.3
2022-12-27T19:10:00.131Z,72.2
2022-12-27T19:15:00.147Z,72.2
2022-12-27T19:20:00.102Z,72.3
2022-12-27T19:25:00.152Z,72.3
2022-12-27T19:30:00.164Z,72.5
2022-12-27T19:35:00.133Z,72.6
2022-12-27T19:40:00.160Z,72.7
2022-12-27T19:45:00.157Z,73.1
2022-12-27T19:50:00.107Z,73.3
2022-12-27T19:55:00.152Z,73.5
2022-12-27T20:00:00.259Z,73.7
2022-12-27T20:05:00.103Z,73.8
2022-12-27T20:10:00.134Z,73.9
2022-12-27T20:15:00.164Z,73.9
2022-12-27T20:20:00.108Z,74
2022-12-27T20:25:00.137Z,74.2
2022-12-27T20:30:00.208Z,74.4
2022-12-27T20:35:00.165Z,74.5
2022-12-27T20:40:00.161Z,74.7
2022-12-27T20:45:00.146Z,74.8
2022-12-27T20:50:00.142Z,74.9
2022-12-27T20:55:00.176Z,74.9
2022-12-27T21:00:00.145Z,75
2022-12-27T21:05:00.130Z,75.1
2022-12-27T21:10:00.103Z,75.2
2022-12-27T21:15:00.170Z,75.3
2022-12-27T21:20:00.128Z,75.5
2022-12-27T21:25:00.139Z,75.7
2022-12-27T21:30:00.159Z,75.9
2022-12-27T21:35:00.152Z,76
2022-12-27T21:40:00.144Z,76.3
2022-12-27T21:45:00.143Z,76.4
2022-12-27T21:50:00.125Z,76.4
2022-12-27T21:55:00.135Z,76.3
2022-12-27T22:00:00.151Z,76.2
2022-12-27T22:05:00.100Z,75.9
2022-12-27T22:10:00.098Z,75.7
2022-12-27T22:15:00.158Z,75.6
2022-12-27T22:20:00.121Z,75.5
2022-12-27T22:25:00.119Z,74.5
2022-12-27T22:30:00.143Z,75.2
2022-12-27T22:35:00.209Z,75
2022-12-27T22:40:00.149Z,75
2022-12-27T22:45:00.126Z,75.1
2022-12-27T22:50:00.137Z,75.2
2022-12-27T22:55:03.574Z,75.2
2022-12-27T23:00:00.150Z,75.2
2022-12-27T23:05:00.130Z,75.3
2022-12-27T23:10:00.105Z,75.3
2022-12-27T23:15:00.167Z,75.5
2022-12-27T23:20:00.097Z,75.2
2022-12-27T23:25:00.110Z,75.5
2022-12-27T23:30:00.163Z,75.5
2022-12-27T23:35:00.157Z,75.4
2022-12-27T23:40:00.101Z,75.4
2022-12-27T23:45:00.127Z,75.3
2022-12-27T23:50:00.126Z,75.3
2022-12-27T23:55:00.141Z,75.2
